Time;durP1;ratioP1;P1;durP2;ratioP2;P2;SDS_P1;SDS_P2;PMS_P1;PMS_P2;Temp;Humidity;BMP_temperature;BMP_pressure;BME280_temperature;BME280_humidity;BME280_pressure;Samples;Min_cycle;Max_cycle;Signal;HPM_P1;HPM_P2
2022/06/21 00:00:24;;;;;;;9.00;6.27;;;;;;;17.59;100.00;99431.51;1771712;80;21539;-56
2022/06/21 00:03:01;;;;;;;8.80;6.47;;;;;;;17.61;100.00;99432.83;1765225;80;21106;-57
2022/06/21 00:05:34;;;;;;;10.00;6.20;;;;;;;17.60;100.00;99425.19;1772542;80;21638;-57
2022/06/21 00:08:03;;;;;;;8.37;6.90;;;;;;;17.57;100.00;99421.20;1740439;80;21062;-57
2022/06/21 00:10:36;;;;;;;9.63;5.93;;;;;;;17.53;100.00;99418.00;1760099;80;21015;-56
2022/06/21 00:13:12;;;;;;;12.23;7.47;;;;;;;17.52;100.00;99417.20;1777912;80;21450;-56
2022/06/21 00:15:41;;;;;;;12.73;8.03;;;;;;;17.61;100.00;99422.29;1759600;80;21810;-55
2022/06/21 00:18:15;;;;;;;9.77;7.30;;;;;;;17.62;100.00;99419.16;1753840;80;21144;-56
2022/06/21 00:20:43;;;;;;;9.73;7.53;;;;;;;17.61;100.00;99417.02;1760796;80;20994;-55
2022/06/21 00:23:16;;;;;;;9.70;7.73;;;;;;;17.63;100.00;99409.67;1765179;80;21094;-59
2022/06/21 00:25:46;;;;;;;12.93;8.17;;;;;;;17.70;100.00;99408.16;1764128;80;21058;-57
2022/06/21 00:28:15;;;;;;;15.58;8.43;;;;;;;17.70;100.00;99403.68;1764455;80;21098;-55
2022/06/21 00:30:42;;;;;;;12.97;7.67;;;;;;;17.66;100.00;99398.64;1761262;80;21145;-55
2022/06/21 00:33:14;;;;;;;10.67;7.93;;;;;;;17.53;100.00;99402.98;1771501;80;21038;-57
2022/06/21 00:35:43;;;;;;;10.70;7.22;;;;;;;17.46;100.00;99410.28;1748787;80;25160;-55
2022/06/21 00:38:17;;;;;;;10.43;7.33;;;;;;;17.40;100.00;99413.93;1761270;80;21690;-57
2022/06/21 00:40:44;;;;;;;9.97;6.93;;;;;;;17.39;100.00;99415.78;1751073;80;21641;-62
2022/06/21 00:43:21;;;;;;;9.17;6.97;;;;;;;17.39;100.00;99409.19;1699166;84;21717;-56
2022/06/21 00:45:50;;;;;;;11.50;7.10;;;;;;;17.40;100.00;99408.66;1746590;80;21649;-57
2022/06/21 00:48:25;;;;;;;10.77;7.13;;;;;;;17.35;100.00;99409.41;1769674;80;21072;-57
2022/06/21 00:51:01;;;;;;;9.73;7.50;;;;;;;17.35;100.00;99404.64;1754658;80;21080;-57
2022/06/21 00:53:32;;;;;;;10.23;6.97;;;;;;;17.38;100.00;99405.47;1751886;80;21074;-56
2022/06/21 00:56:29;;;;;;;9.97;7.33;;;;;;;17.45;100.00;99406.07;1742075;80;21154;-56
2022/06/21 00:58:56;;;;;;;13.90;6.93;;;;;;;17.45;100.00;99410.02;1750447;80;21509;-57
2022/06/21 01:01:28;;;;;;;10.50;5.80;;;;;;;17.43;100.00;99408.17;1735989;80;21071;-56
2022/06/21 01:04:03;;;;;;;8.93;7.10;;;;;;;17.38;100.00;99410.73;1759839;80;21497;-63
2022/06/21 01:06:38;;;;;;;10.43;6.70;;;;;;;17.37;100.00;99410.47;1759816;80;21457;-57
2022/06/21 01:09:22;;;;;;;9.10;6.37;;;;;;;17.33;100.00;99404.90;1749201;80;21777;-57
2022/06/21 01:11:54;;;;;;;9.73;7.13;;;;;;;17.29;100.00;99403.81;1746774;80;21050;-58
2022/06/21 01:14:22;;;;;;;9.63;6.27;;;;;;;17.29;100.00;99403.02;1758912;80;21933;-57
2022/06/21 01:16:52;;;;;;;8.13;6.37;;;;;;;17.27;100.00;99399.30;1766406;80;21078;-60
2022/06/21 01:19:41;;;;;;;7.87;6.03;;;;;;;17.24;100.00;99399.29;1747817;80;20971;-62
2022/06/21 01:22:44;;;;;;;9.60;6.43;;;;;;;17.16;100.00;99395.78;1754814;80;21871;-58
2022/06/21 01:25:28;;;;;;;8.13;6.60;;;;;;;17.15;100.00;99395.48;1743912;80;21279;-56
2022/06/21 01:27:56;;;;;;;8.17;5.10;;;;;;;17.14;100.00;99392.59;1741624;80;21027;-57
2022/06/21 01:30:23;;;;;;;10.33;6.53;;;;;;;17.14;100.00;99395.22;1740339;80;21738;-63
2022/06/21 01:32:51;;;;;;;7.87;5.60;;;;;;;17.15;100.00;99392.06;1758894;80;21019;-57
2022/06/21 01:35:38;;;;;;;8.90;6.40;;;;;;;17.14;100.00;99382.58;1749758;80;21157;-56
2022/06/21 01:38:06;;;;;;;8.63;6.50;;;;;;;17.20;100.00;99383.71;1742639;80;20849;-55
2022/06/21 01:40:36;;;;;;;8.63;6.33;;;;;;;17.25;100.00;99383.75;1705433;83;21062;-54
2022/06/21 01:43:08;;;;;;;9.18;5.42;;;;;;;17.24;100.00;99382.70;1705568;81;20999;-55
2022/06/21 01:45:40;;;;;;;10.13;5.85;;;;;;;17.28;100.00;99385.11;1705860;80;21487;-59
2022/06/21 01:48:26;;;;;;;10.27;6.00;;;;;;;17.31;100.00;99385.11;1717166;83;21907;-57
2022/06/21 01:50:58;;;;;;;7.73;5.73;;;;;;;17.34;100.00;99385.94;1683240;83;20987;-57
2022/06/21 01:53:27;;;;;;;8.57;6.13;;;;;;;17.40;100.00;99385.75;1689603;84;20963;-57
2022/06/21 01:55:58;;;;;;;8.53;6.57;;;;;;;17.47;100.00;99377.13;1722947;83;21353;-60
2022/06/21 01:58:31;;;;;;;11.27;6.03;;;;;;;17.54;100.00;99375.61;1704445;80;21087;-56
2022/06/21 02:01:04;;;;;;;9.90;5.97;;;;;;;17.76;100.00;99375.54;1712606;80;21146;-58
2022/06/21 02:03:35;;;;;;;9.63;5.77;;;;;;;18.12;100.00;99366.59;1709591;80;21299;-56
2022/06/21 02:06:06;;;;;;;8.30;5.80;;;;;;;18.56;100.00;99367.11;1721725;81;21008;-57
2022/06/21 02:08:36;;;;;;;;;;;;;;;19.11;100.00;99358.33;1704450;81;21492;-56
2022/06/21 02:11:07;;;;;;;6.20;4.90;;;;;;;19.68;100.00;99356.05;1708574;81;20087;-57
2022/06/21 02:13:42;;;;;;;9.53;5.87;;;;;;;20.26;100.00;99355.70;1709658;81;21195;-58
2022/06/21 02:16:20;;;;;;;7.00;5.33;;;;;;;20.85;100.00;99346.52;1717690;80;22220;-57
2022/06/21 02:18:53;;;;;;;8.43;5.63;;;;;;;21.51;100.00;99342.66;1709112;80;21022;-56
2022/06/21 02:21:40;;;;;;;6.33;4.67;;;;;;;22.10;100.00;99341.61;1686418;83;21043;-58
2022/06/21 02:24:08;;;;;;;10.30;5.33;;;;;;;22.70;100.00;99337.78;1721678;80;21450;-63
2022/06/21 02:26:36;;;;;;;8.33;5.07;;;;;;;23.32;100.00;99330.55;1715189;83;21231;-57
2022/06/21 02:29:05;;;;;;;10.33;5.43;;;;;;;23.90;100.00;99329.34;1706919;80;20955;-57
2022/06/21 02:31:32;;;;;;;8.07;5.67;;;;;;;24.47;100.00;99329.36;1717649;80;21442;-56
2022/06/21 02:34:03;;;;;;;7.97;5.00;;;;;;;25.03;100.00;99329.23;1708384;80;21079;-57
2022/06/21 02:36:35;;;;;;;8.07;5.00;;;;;;;25.62;100.00;99326.78;1707388;83;21015;-58
2022/06/21 02:39:04;;;;;;;;;;;;;;;26.20;100.00;99321.02;1738441;80;21758;-56
2022/06/21 02:41:37;;;;;;;8.07;6.80;;;;;;;26.76;97.02;99321.34;1738805;81;20244;-56
2022/06/21 02:44:16;;;;;;;11.25;8.95;;;;;;;27.26;87.13;99313.64;1706882;82;20996;-65
2022/06/21 02:46:46;;;;;;;13.65;9.30;;;;;;;27.79;80.27;99311.11;1733885;81;21051;-62
2022/06/21 02:49:24;;;;;;;8.60;6.12;;;;;;;28.41;73.57;99311.62;1737352;81;21545;-57
2022/06/21 02:51:56;;;;;;;9.28;7.05;;;;;;;28.92;67.56;99317.76;1745825;81;21149;-59
2022/06/21 02:54:33;;;;;;;14.15;9.70;;;;;;;29.47;62.52;99310.73;1749789;81;21507;-58
2022/06/21 02:57:32;;;;;;;8.05;6.60;;;;;;;29.96;58.55;99314.05;1711250;82;21065;-56
2022/06/21 02:59:59;;;;;;;6.03;5.05;;;;;;;30.38;54.81;99303.87;1732842;82;21066;-60
2022/06/21 03:02:28;;;;;;;5.47;4.60;;;;;;;30.83;51.90;99307.50;1735347;81;22220;-56
2022/06/21 03:05:01;;;;;;;5.35;4.85;;;;;;;31.07;49.38;99304.73;1746769;81;21250;-57
2022/06/21 03:07:33;;;;;;;6.60;4.60;;;;;;;31.35;48.35;99306.64;1727525;81;21075;-57
2022/06/21 03:10:00;;;;;;;7.00;4.83;;;;;;;31.68;46.86;99296.91;1732845;82;21058;-56
2022/06/21 03:12:31;;;;;;;6.70;5.10;;;;;;;32.05;45.45;99302.83;1739194;81;21865;-56
2022/06/21 03:15:03;;;;;;;5.83;4.53;;;;;;;32.43;43.96;99288.69;1729248;81;20976;-56
2022/06/21 03:17:50;;;;;;;5.78;4.10;;;;;;;32.79;42.33;99294.03;1721970;81;21299;-64
2022/06/21 03:20:19;;;;;;;8.23;4.75;;;;;;;33.00;41.84;99287.73;1735830;81;21037;-58
2022/06/21 03:22:48;;;;;;;4.72;4.12;;;;;;;33.38;40.81;99286.10;1732361;81;20993;-60
2022/06/21 03:25:24;;;;;;;6.00;4.62;;;;;;;33.61;39.71;99285.56;1733961;82;21018;-57
2022/06/21 03:27:54;;;;;;;7.62;5.05;;;;;;;33.79;39.12;99283.15;1741988;81;21437;-56
2022/06/21 03:30:24;;;;;;;;;;;;;;;34.03;38.60;99279.28;1736151;81;21133;-56
2022/06/21 03:32:53;;;;;;;6.58;4.80;;;;;;;34.30;37.82;99280.04;1739364;81;20136;-61
2022/06/21 03:35:20;;;;;;;8.80;5.62;;;;;;;34.68;37.55;99280.94;1721889;81;21355;-59
2022/06/21 03:37:47;;;;;;;7.55;5.42;;;;;;;35.03;36.48;99272.45;1732485;80;21540;-56
2022/06/21 03:43:28;;;;;;;6.97;4.83;;;;;;;35.31;35.77;99265.19;1757898;80;21558;-58
2022/06/21 03:45:56;;;;;;;8.90;4.62;;;;;;;35.61;35.37;99266.22;1716247;82;21050;-58
2022/06/21 03:48:40;;;;;;;6.83;5.33;;;;;;;36.11;34.68;99266.61;1714765;81;20999;-56
2022/06/21 03:51:14;;;;;;;6.80;4.70;;;;;;;36.29;34.30;99268.81;1687573;83;21086;-57
2022/06/21 03:53:45;;;;;;;8.50;4.37;;;;;;;36.41;33.78;99270.44;1749981;80;21051;-59
2022/06/21 03:56:27;;;;;;;5.95;4.97;;;;;;;36.49;33.62;99271.47;1743861;80;21256;-63
2022/06/21 03:59:34;;;;;;;7.17;4.75;;;;;;;36.66;33.31;99263.77;1742635;80;21427;-58
2022/06/21 04:02:25;;;;;;;6.15;4.33;;;;;;;36.76;33.33;99257.59;1736474;80;21153;-57
2022/06/21 04:05:01;;;;;;;6.62;4.65;;;;;;;37.03;32.82;99264.09;1733703;80;21013;-57
2022/06/21 04:07:46;;;;;;;6.97;4.95;;;;;;;37.18;32.50;99263.72;1699188;83;21099;-58
2022/06/21 04:10:24;;;;;;;7.08;4.00;;;;;;;37.39;31.85;99262.17;1761805;80;22791;-61
2022/06/21 04:13:02;;;;;;;5.33;4.37;;;;;;;37.45;32.06;99258.72;1753868;80;21364;-56
2022/06/21 04:15:39;;;;;;;5.72;3.98;;;;;;;37.68;30.96;99256.95;1757520;80;20997;-56
2022/06/21 04:18:20;;;;;;;5.40;4.08;;;;;;;37.78;30.83;99258.70;1751586;80;21522;-61
2022/06/21 04:21:08;;;;;;;5.60;3.87;;;;;;;37.97;30.49;99259.67;1762393;80;21075;-55
2022/06/21 04:24:01;;;;;;;6.37;3.83;;;;;;;37.92;30.01;99251.33;1762401;80;21240;-57
2022/06/21 04:26:40;;;;;;;5.85;4.30;;;;;;;37.93;31.03;99249.38;1740001;80;20962;-56
2022/06/21 04:29:29;;;;;;;5.45;3.72;;;;;;;38.16;30.06;99242.12;1747780;80;21086;-60
2022/06/21 04:32:01;;;;;;;6.42;4.45;;;;;;;38.20;29.65;99244.25;1747668;80;21002;-57
2022/06/21 04:34:49;;;;;;;4.80;3.75;;;;;;;38.21;29.67;99231.59;1758119;80;20984;-58
2022/06/21 04:37:41;;;;;;;5.83;3.62;;;;;;;38.32;29.17;99234.86;1769387;80;21838;-57
2022/06/21 04:40:23;;;;;;;4.42;3.47;;;;;;;38.47;29.42;99236.38;1760275;80;21545;-59
2022/06/21 04:43:11;;;;;;;7.20;3.95;;;;;;;38.72;29.31;99232.18;1716239;80;21476;-56
2022/06/21 04:45:54;;;;;;;;;;;;;;;38.98;28.87;99230.84;1759673;80;21582;-57
2022/06/21 04:48:44;;;;;;;7.78;4.35;;;;;;;39.35;28.06;99228.08;1741901;80;20153;-57
2022/06/21 04:51:24;;;;;;;8.10;4.50;;;;;;;39.46;28.00;99227.98;1752486;80;21566;-57
2022/06/21 04:53:58;;;;;;;6.22;4.85;;;;;;;39.43;27.88;99226.83;1759650;80;21632;-56
2022/06/21 04:56:51;;;;;;;6.78;4.87;;;;;;;39.20;28.38;99230.70;1748481;80;21085;-56
2022/06/21 04:59:30;;;;;;;6.85;4.72;;;;;;;39.28;28.65;99229.49;1759173;80;21063;-59
2022/06/21 05:01:57;;;;;;;8.35;4.20;;;;;;;39.58;28.46;99221.42;1711217;82;21913;-57
2022/06/21 05:04:37;;;;;;;7.50;5.15;;;;;;;40.07;28.31;99218.61;1733488;82;21887;-56
2022/06/21 05:07:11;;;;;;;6.40;5.15;;;;;;;40.59;27.65;99212.94;1741935;80;21048;-60
2022/06/21 05:09:38;;;;;;;6.50;5.80;;;;;;;41.02;26.94;99208.98;1760150;80;21113;-58
2022/06/21 05:12:13;;;;;;;6.90;6.20;;;;;;;41.10;27.17;99209.64;1727395;80;21062;-57
2022/06/21 05:14:44;;;;;;;6.60;5.65;;;;;;;41.31;26.93;99209.30;1755518;80;21063;-56
2022/06/21 05:17:14;;;;;;;7.97;6.40;;;;;;;41.52;26.42;99210.13;1762786;80;21267;-57
2022/06/21 05:19:51;;;;;;;8.98;7.10;;;;;;;41.58;26.23;99210.44;1760965;80;20955;-63
2022/06/21 05:22:36;;;;;;;12.23;6.35;;;;;;;41.55;26.09;99199.72;1760724;80;22004;-58
2022/06/21 05:25:09;;;;;;;7.03;6.20;;;;;;;41.61;26.10;99199.42;1753580;80;21045;-58
2022/06/21 05:27:54;;;;;;;8.35;6.22;;;;;;;41.77;26.40;99194.02;1761427;80;21000;-57
2022/06/21 05:30:43;;;;;;;9.18;7.47;;;;;;;41.96;26.07;99191.14;1738153;81;21220;-63
2022/06/21 05:33:32;;;;;;;7.35;5.78;;;;;;;42.02;25.88;99186.72;1753197;80;20944;-56
2022/06/21 05:36:01;;;;;;;7.70;7.00;;;;;;;42.16;25.75;99185.64;1744772;80;20983;-57
2022/06/21 05:38:32;;;;;;;9.90;6.28;;;;;;;42.31;25.76;99178.52;1755336;80;20979;-61
2022/06/21 05:41:06;;;;;;;7.28;5.47;;;;;;;42.52;25.34;99179.42;1752625;80;21467;-57
2022/06/21 05:43:42;;;;;;;7.37;5.85;;;;;;;42.49;25.38;99170.08;1762528;80;21545;-57
2022/06/21 05:46:17;;;;;;;7.40;5.92;;;;;;;42.59;25.53;99167.53;1748377;80;21067;-63
2022/06/21 05:48:46;;;;;;;7.53;6.47;;;;;;;42.68;25.03;99162.25;1751324;80;21593;-56
2022/06/21 05:51:25;;;;;;;6.40;5.80;;;;;;;42.59;25.16;99155.20;1744684;80;21088;-56
2022/06/21 05:53:57;;;;;;;6.62;5.92;;;;;;;42.57;25.31;99161.09;1741220;80;21536;-62
2022/06/21 05:56:25;;;;;;;6.15;5.42;;;;;;;42.70;25.42;99160.63;1757886;80;21643;-60
2022/06/21 05:59:01;;;;;;;6.45;5.60;;;;;;;42.72;25.27;99155.48;1756568;80;21028;-56
2022/06/21 06:01:34;;;;;;;6.37;5.78;;;;;;;42.78;25.27;99150.88;1746670;80;21069;-57
2022/06/21 06:04:32;;;;;;;5.35;4.85;;;;;;;42.82;25.14;99141.96;1745700;80;20999;-57
2022/06/21 06:06:59;;;;;;;6.20;5.57;;;;;;;42.91;25.48;99142.11;1760166;80;21063;-57
2022/06/21 06:09:35;;;;;;;7.83;5.62;;;;;;;43.00;25.17;99138.15;1741780;80;21261;-63
2022/06/21 06:12:23;;;;;;;5.87;5.25;;;;;;;43.16;25.01;99138.17;1761946;80;21093;-58
2022/06/21 06:14:56;;;;;;;7.83;5.95;;;;;;;43.19;25.12;99133.77;1751545;80;21324;-65
2022/06/21 06:17:50;;;;;;;7.12;5.58;;;;;;;43.28;25.21;99131.20;1707222;80;21758;-56
2022/06/21 06:20:56;;;;;;;6.05;5.12;;;;;;;43.32;25.15;99121.50;1764261;80;21514;-57
2022/06/21 06:23:43;;;;;;;6.10;4.92;;;;;;;43.36;25.01;99121.56;1738289;80;21331;-58
2022/06/21 06:26:15;;;;;;;6.20;5.60;;;;;;;43.56;24.53;99122.03;1750503;80;20951;-58
2022/06/21 06:28:53;;;;;;;5.83;5.05;;;;;;;43.48;24.47;99114.00;1758482;80;21044;-56
2022/06/21 06:31:25;;;;;;;6.47;5.35;;;;;;;43.54;24.69;99114.86;1742025;81;20964;-57
2022/06/21 06:33:56;;;;;;;6.00;5.40;;;;;;;43.69;24.27;99114.02;1756412;80;21509;-62
2022/06/21 06:36:27;;;;;;;9.05;5.30;;;;;;;43.72;24.14;99120.59;1760091;80;21275;-56
2022/06/21 06:38:55;;;;;;;5.87;4.87;;;;;;;43.77;24.15;99114.58;1750708;80;21043;-60
2022/06/21 06:41:36;;;;;;;5.83;4.78;;;;;;;43.76;24.27;99112.25;1700852;83;21074;-57
2022/06/21 06:44:08;;;;;;;5.67;4.03;;;;;;;43.70;24.37;99110.66;1751726;80;21111;-58
2022/06/21 06:46:42;;;;;;;5.58;4.92;;;;;;;43.68;23.01;99106.20;1770774;80;21039;-57
2022/06/21 06:49:21;;;;;;;5.95;4.87;;;;;;;43.64;23.58;99107.67;1746475;80;21822;-64
2022/06/21 06:52:12;;;;;;;7.42;4.35;;;;;;;43.64;24.30;99108.28;1761323;80;20963;-57
2022/06/21 06:55:25;;;;;;;5.15;4.45;;;;;;;43.73;24.18;99102.16;1760500;80;21028;-61
2022/06/21 06:58:03;;;;;;;8.15;4.72;;;;;;;43.60;23.75;99096.63;1740293;80;20977;-65
2022/06/21 07:00:37;;;;;;;5.78;4.33;;;;;;;43.56;23.68;99096.73;1762078;80;21894;-57
2022/06/21 07:03:08;;;;;;;5.08;4.22;;;;;;;43.51;23.61;99095.14;1752038;80;21207;-57
2022/06/21 07:05:52;;;;;;;6.78;4.03;;;;;;;43.62;24.08;99097.75;1761354;80;20936;-60
2022/06/21 07:08:43;;;;;;;4.40;3.77;;;;;;;43.62;24.08;99097.75;1747608;81;21602;-56
2022/06/21 07:11:24;;;;;;;5.78;4.08;;;;;;;43.64;23.21;99089.06;1769589;80;21075;-64
2022/06/21 07:13:53;;;;;;;4.20;3.60;;;;;;;43.48;23.39;99083.81;1769683;80;20920;-58
2022/06/21 07:16:22;;;;;;;4.00;3.52;;;;;;;43.44;23.49;99080.98;1766347;80;21178;-56
2022/06/21 07:18:52;;;;;;;4.42;3.47;;;;;;;43.48;22.74;99085.80;1755804;80;21498;-59
2022/06/21 07:21:19;;;;;;;4.78;3.27;;;;;;;43.60;22.66;99078.80;1765825;80;21091;-56
2022/06/21 07:23:46;;;;;;;4.90;3.52;;;;;;;43.51;22.24;99073.95;1747891;80;21469;-58
2022/06/21 07:26:37;;;;;;;5.58;3.37;;;;;;;43.37;22.25;99072.95;1761191;80;21537;-57
2022/06/21 07:29:11;;;;;;;5.55;3.00;;;;;;;43.17;21.90;99071.74;1760005;80;21377;-57
2022/06/21 07:31:51;;;;;;;4.90;3.30;;;;;;;42.91;22.27;99072.97;1769469;80;20943;-57
2022/06/21 07:34:42;;;;;;;4.60;2.85;;;;;;;42.92;22.34;99068.25;1752822;80;21048;-63
2022/06/21 07:37:28;;;;;;;3.27;2.65;;;;;;;43.05;22.28;99066.35;1764842;80;21062;-56
2022/06/21 07:40:16;;;;;;;4.92;2.62;;;;;;;43.03;22.40;99060.52;1745678;80;20948;-59
2022/06/21 07:42:57;;;;;;;4.40;2.50;;;;;;;43.14;22.09;99058.28;1763160;80;21137;-56
2022/06/21 07:45:46;;;;;;;4.08;2.40;;;;;;;42.97;21.89;99056.17;1743494;80;21547;-59
2022/06/21 07:48:42;;;;;;;3.98;1.85;;;;;;;42.87;21.41;99055.09;1762173;80;20986;-56
2022/06/21 07:51:17;;;;;;;3.45;2.30;;;;;;;42.67;21.92;99060.09;1754686;80;21123;-57
2022/06/21 07:53:52;;;;;;;2.92;2.22;;;;;;;42.78;20.81;99047.48;1765443;80;21036;-57
2022/06/21 07:56:37;;;;;;;3.70;2.17;;;;;;;42.82;20.39;99050.14;1689723;84;21236;-56
2022/06/21 07:59:18;;;;;;;2.60;1.92;;;;;;;42.67;20.62;99049.73;1755076;80;21541;-58
2022/06/21 08:07:52;;;;;;;2.67;1.90;;;;;;;42.58;19.91;99038.56;1749888;80;21059;-58
2022/06/21 08:10:24;;;;;;;2.33;1.70;;;;;;;42.48;20.21;99030.19;1759622;80;21154;-56
2022/06/21 08:12:54;;;;;;;5.75;2.10;;;;;;;42.63;20.51;99036.09;1766786;80;20910;-57
2022/06/21 08:15:22;;;;;;;2.70;1.77;;;;;;;42.76;19.61;99030.69;1736775;80;21007;-64
2022/06/21 08:17:55;;;;;;;3.35;1.85;;;;;;;42.70;19.42;99027.72;1739055;80;20999;-56
2022/06/21 08:20:33;;;;;;;2.62;1.90;;;;;;;42.57;19.55;99028.20;1763254;80;21632;-57
2022/06/21 08:23:17;;;;;;;5.05;1.95;;;;;;;42.18;19.83;99027.17;1762183;80;21233;-56
2022/06/21 08:26:05;;;;;;;4.37;1.82;;;;;;;41.56;20.36;99033.02;1748045;80;21036;-55
2022/06/21 08:28:40;;;;;;;4.05;1.87;;;;;;;40.88;20.51;99026.66;1755151;80;20909;-56
2022/06/21 08:31:12;;;;;;;2.02;1.60;;;;;;;39.86;20.91;99025.91;1751226;80;21428;-58
2022/06/21 08:33:56;;;;;;;2.70;1.65;;;;;;;38.89;21.88;99025.61;1763397;80;21134;-56
2022/06/21 08:36:31;;;;;;;2.60;1.72;;;;;;;38.43;22.83;99028.13;1749267;80;21229;-59
2022/06/21 08:39:21;;;;;;;3.98;2.22;;;;;;;38.17;21.79;99019.15;1751154;80;21130;-57
2022/06/21 08:42:06;;;;;;;3.75;1.67;;;;;;;37.85;21.98;99017.37;1730487;80;21498;-58
2022/06/21 08:48:19;;;;;;;3.90;2.00;;;;;;;37.56;23.27;99011.89;1760219;80;21835;-56
2022/06/21 08:51:26;;;;;;;3.35;1.65;;;;;;;37.80;22.75;99010.98;1748549;80;22151;-60
2022/06/21 08:54:08;;;;;;;2.42;1.98;;;;;;;38.07;22.75;99013.95;1764349;80;20908;-59
2022/06/21 08:57:10;;;;;;;4.55;2.02;;;;;;;38.51;21.87;99007.64;1738152;80;21680;-57
2022/06/21 08:59:46;;;;;;;2.35;1.77;;;;;;;38.86;21.97;98999.76;1752183;80;21088;-59
2022/06/21 09:02:21;;;;;;;3.27;1.60;;;;;;;39.27;21.79;98992.91;1744788;80;21748;-56
2022/06/21 09:05:24;;;;;;;3.77;2.15;;;;;;;39.65;21.08;98991.47;1755134;80;21243;-58
2022/06/21 09:08:16;;;;;;;2.52;1.92;;;;;;;39.96;20.88;98981.90;1747690;80;21545;-56
2022/06/21 09:11:15;;;;;;;2.20;2.00;;;;;;;40.24;21.18;98989.69;1758118;80;21080;-56
2022/06/21 09:14:18;;;;;;;5.50;2.22;;;;;;;40.37;20.67;98980.30;1695408;83;21011;-57
2022/06/21 09:17:00;;;;;;;2.55;1.75;;;;;;;40.53;21.03;98981.01;1763278;80;21062;-56
2022/06/21 09:19:36;;;;;;;2.08;1.50;;;;;;;40.78;20.11;98970.44;1750522;80;22304;-62
2022/06/21 09:22:19;;;;;;;4.25;1.70;;;;;;;40.78;19.91;98970.44;1748984;80;21062;-57
2022/06/21 09:24:51;;;;;;;2.83;1.95;;;;;;;40.51;19.67;98963.68;1766949;80;20944;-65
2022/06/21 09:27:48;;;;;;;2.85;2.20;;;;;;;40.33;20.11;98970.80;1741747;80;21577;-59
2022/06/21 09:30:32;;;;;;;2.90;1.95;;;;;;;40.19;20.22;98960.11;1750554;80;21048;-64
2022/06/21 09:33:06;;;;;;;5.08;1.95;;;;;;;40.06;20.58;98959.91;1763999;80;21213;-59
2022/06/21 09:35:41;;;;;;;3.10;1.50;;;;;;;39.95;20.28;98948.38;1746857;80;20937;-57
2022/06/21 09:38:51;;;;;;;2.62;1.82;;;;;;;39.97;20.92;98957.52;1761206;80;21554;-59
2022/06/21 09:41:49;;;;;;;3.50;1.77;;;;;;;40.03;20.72;98950.41;1744532;80;21055;-59
2022/06/21 09:44:25;;;;;;;2.40;1.87;;;;;;;40.28;20.33;98957.64;1750266;80;21021;-57
2022/06/21 09:47:12;;;;;;;4.25;1.87;;;;;;;40.50;19.86;98949.06;1689192;83;21781;-65
2022/06/21 09:49:58;;;;;;;7.10;1.60;;;;;;;40.60;19.87;98949.50;1691994;84;21129;-58
2022/06/21 09:52:56;;;;;;;2.85;1.90;;;;;;;40.72;19.60;98947.52;1747460;80;21539;-58
2022/06/21 09:55:33;;;;;;;2.22;1.70;;;;;;;40.87;19.67;98941.78;1713145;80;21084;-57
2022/06/21 09:58:33;;;;;;;2.10;1.50;;;;;;;40.85;19.42;98942.22;1758776;80;22898;-64
2022/06/21 10:01:15;;;;;;;2.35;1.55;;;;;;;40.78;19.92;98942.34;1740549;80;22115;-57
2022/06/21 10:04:08;;;;;;;2.52;1.72;;;;;;;40.61;19.55;98933.28;1702926;80;21464;-62
2022/06/21 10:06:47;;;;;;;2.27;1.62;;;;;;;40.51;19.95;98924.08;1759434;80;20925;-56
2022/06/21 10:09:59;;;;;;;5.22;2.65;;;;;;;40.57;19.70;98918.92;1756968;80;20999;-57
2022/06/21 10:12:43;;;;;;;4.17;2.02;;;;;;;40.58;19.54;98921.84;1750478;80;21459;-62
2022/06/21 10:15:32;;;;;;;3.65;2.00;;;;;;;40.34;19.99;98919.09;1744540;80;21525;-57
2022/06/21 10:18:43;;;;;;;4.05;2.05;;;;;;;40.01;20.42;98922.18;1754850;80;21059;-62
2022/06/21 10:21:51;;;;;;;2.75;1.70;;;;;;;39.78;20.58;98914.75;1759854;80;21003;-63
2022/06/21 10:24:40;;;;;;;2.65;2.05;;;;;;;39.71;21.22;98917.58;1761493;80;21107;-57
2022/06/21 10:27:53;;;;;;;4.30;1.90;;;;;;;39.67;20.80;98905.92;1753573;80;21127;-56
2022/06/21 10:30:39;;;;;;;2.50;2.10;;;;;;;39.53;20.98;98906.13;1752184;80;21370;-63
2022/06/21 10:33:15;;;;;;;6.95;2.40;;;;;;;39.45;21.05;98911.50;1752639;80;20948;-56
2022/06/21 10:35:59;;;;;;;3.33;2.05;;;;;;;39.48;21.15;98907.95;1746919;80;21017;-57
2022/06/21 10:38:41;;;;;;;3.75;2.37;;;;;;;39.52;20.99;98897.77;1749983;80;21098;-56
2022/06/21 10:42:46;;;;;;;3.20;1.40;;;;;;;39.58;21.22;98904.28;1766920;80;21613;-57
2022/06/21 10:44:28;;;;;;;2.85;1.67;;;;;;;39.36;21.58;98897.79;1745533;80;21760;-58
2022/06/21 10:47:05;;;;;;;3.05;2.00;;;;;;;39.33;22.02;98893.16;1748196;80;21317;-58
2022/06/21 10:49:50;;;;;;;2.30;1.90;;;;;;;39.56;21.53;98888.94;1762318;80;21036;-57
2022/06/21 10:52:28;;;;;;;5.28;2.05;;;;;;;39.76;21.65;98881.64;1737382;80;21625;-57
2022/06/21 10:55:12;;;;;;;;;;;;;;;39.80;21.80;98884.31;1723187;80;21518;-56
2022/06/21 10:58:01;;;;;;;2.47;1.70;;;;;;;39.89;21.46;98884.54;1738942;80;21211;-58
2022/06/21 11:04:09;;;;;;;3.33;1.77;;;;;;;39.91;21.01;98878.69;1704266;82;21051;-64
2022/06/21 11:06:53;;;;;;;2.47;1.90;;;;;;;40.03;21.42;98877.48;1753362;80;20994;-56
2022/06/21 11:09:42;;;;;;;2.25;1.60;;;;;;;40.20;20.65;98864.77;1751644;80;20983;-58
2022/06/21 11:15:35;;;;;;;2.98;1.52;;;;;;;39.70;20.79;98861.45;1756350;80;21807;-56
2022/06/21 11:18:17;;;;;;;3.47;1.90;;;;;;;39.48;21.50;98862.97;1757676;80;21059;-58
2022/06/21 11:21:11;;;;;;;2.17;1.57;;;;;;;39.34;20.92;98858.48;1747171;80;21088;-58
2022/06/21 11:23:47;;;;;;;3.05;1.77;;;;;;;39.19;21.31;98855.14;1769887;80;20984;-64
2022/06/21 11:26:37;;;;;;;2.85;1.72;;;;;;;39.23;21.32;98846.92;1745174;80;21300;-65
2022/06/21 11:29:33;;;;;;;4.42;1.62;;;;;;;39.31;21.10;98848.39;1750662;80;21067;-57
2022/06/21 11:32:18;;;;;;;3.70;1.62;;;;;;;39.33;21.42;98846.04;1745867;80;21040;-57
2022/06/21 11:35:03;;;;;;;2.87;1.80;;;;;;;39.28;21.17;98845.12;1738285;80;20953;-56
2022/06/21 11:38:10;;;;;;;2.58;1.90;;;;;;;39.07;21.30;98848.30;1754322;80;21594;-58
2022/06/21 11:40:55;;;;;;;2.60;2.10;;;;;;;38.88;21.01;98834.73;1758955;80;21241;-64
2022/06/21 11:43:51;;;;;;;3.35;2.00;;;;;;;38.73;20.82;98836.05;1760904;80;20924;-58
2022/06/21 11:46:29;;;;;;;4.58;1.98;;;;;;;38.46;21.14;98837.34;1756438;80;21433;-60
2022/06/21 11:49:16;;;;;;;4.87;1.70;;;;;;;38.34;21.70;98833.75;1776486;80;21047;-58
2022/06/21 11:52:10;;;;;;;2.52;1.67;;;;;;;38.35;21.87;98825.79;1753581;80;21521;-59
2022/06/21 11:54:45;;;;;;;2.37;1.75;;;;;;;38.41;21.55;98819.47;1776846;80;21281;-57
2022/06/21 11:57:20;;;;;;;3.95;2.12;;;;;;;38.52;21.68;98824.80;1707040;80;21079;-66
2022/06/21 12:00:05;;;;;;;2.40;1.80;;;;;;;38.49;21.54;98815.31;1747448;80;21563;-57
2022/06/21 12:02:54;;;;;;;2.92;1.90;;;;;;;38.58;21.52;98818.34;1750302;80;21612;-58
2022/06/21 12:05:42;;;;;;;2.15;1.62;;;;;;;38.53;21.18;98810.03;1750565;80;21979;-59
2022/06/21 12:08:34;;;;;;;2.92;1.70;;;;;;;38.48;21.48;98805.02;1762083;80;21923;-65
2022/06/21 12:11:55;;;;;;;2.40;1.40;;;;;;;38.54;22.11;98808.08;1752238;80;20979;-58
2022/06/21 12:14:37;;;;;;;2.35;1.70;;;;;;;38.63;21.30;98809.12;1763543;80;20981;-58
2022/06/21 12:17:20;;;;;;;2.12;1.82;;;;;;;38.56;21.01;98804.34;1756441;80;21115;-58
2022/06/21 12:19:52;;;;;;;2.42;1.95;;;;;;;38.53;21.26;98801.86;1759938;80;21459;-57
2022/06/21 12:22:25;;;;;;;2.02;1.77;;;;;;;38.51;21.26;98800.72;1757670;80;22007;-57
2022/06/21 12:24:53;;;;;;;2.75;1.50;;;;;;;38.36;21.23;98795.43;1750139;80;21051;-59
2022/06/21 12:27:20;;;;;;;2.80;1.87;;;;;;;38.30;21.39;98792.95;1765984;80;21831;-64
2022/06/21 12:29:48;;;;;;;4.80;1.90;;;;;;;38.24;21.35;98785.63;1759480;80;21153;-57
2022/06/21 12:32:23;;;;;;;2.20;1.90;;;;;;;38.12;21.57;98788.28;1750432;80;21071;-57
2022/06/21 12:35:04;;;;;;;2.35;2.08;;;;;;;38.00;21.79;98789.57;1750733;80;21136;-56
2022/06/21 12:37:42;;;;;;;2.30;1.90;;;;;;;37.85;21.65;98781.33;1749916;80;20980;-57
2022/06/21 12:40:34;;;;;;;3.22;2.02;;;;;;;37.66;22.13;98782.07;1770998;80;21051;-65
2022/06/21 12:43:18;;;;;;;4.12;2.40;;;;;;;37.47;22.35;98780.67;1753797;80;21561;-56
2022/06/21 12:45:59;;;;;;;3.00;1.80;;;;;;;37.30;22.14;98773.37;1764688;80;21029;-65
2022/06/21 12:48:44;;;;;;;3.55;2.27;;;;;;;37.22;22.21;98769.93;1774320;80;21154;-57